Главная страница
METAR-TAF:

METAR-TAF

Аэропорты :

Алжир, Алжир

Аэропорт Хуари Бумедьен

широта: 36-43N, долгота: 003-15E, высота над уровнем моря: 25 м

Текущие метеонаблюдения

Эта сводка был подготовлена 20 минут назад, в 12:00 UTC
Ветер 3 Узел от западный-юго-западный, изменяющийся между южный и западный
Температура 20°C
Влажность 56%
Давление 1026 hPa
Видимость 10 км и более
Нет облачности ниже 1500 м, и нет кучево-дождевой облачности

METAR: DAAG 221200Z 24003KT 180V280 CAVOK 20/11 Q1026

Время: 13:20 (12:20 UTC)

Прогноз

Эта сводка был подготовлена 1 час и 20 минут назад, в 11:00 UTC
Прогноз действительный с 22-го 12 UTC до 23-го 12 UTC
Ветер 6 Узел от юго-западный
Видимость 10 км и более
Нет облачности ниже 1500 м, и нет кучево-дождевой облачности
временами
С 22-го 12 UTC до 22-го 18 UTC
Ветер 10 Узел от западно-северо-западный

TAF: DAAG 221100Z 2212/2312 22006KT CAVOK TEMPO 2212/2218 30010KT

Метеонаблюдения и прогнозы для более 4000 аэропортов (сводки METAR и TAF).

Имеющиеся станции представлены на карте желтыми и красными точками.

Чтобы увидеть название станции, наведите на нее мышь.

Затем щелкните, чтобы увидеть метеонаблюдения и метеопрогнозы.

Управление картой: чтобы увеличить масштаб, щелкните зеленые кнопки с черным крестиком; чтобы уменьшить масштаб, щелкните зеленую кнопку с тире; для просмотра соседних карт щелкайте зеленые стрелки.


METAR-TAF: